Portada
METAR-TAF:

METAR-TAF

Aeroports :

Bückeburg, Alemanya

latitud: 52-17N, longitud: 009-05E, altitud: 70 m

Observació

L'informe es va fer fa 19 minuts, a les 15:20 UTC
Vent 11 kt del Sud/Sud-Oest
Temperatura 4°C
Humitat 75%
Pressió 1021 hPa
Visibilitat 10 km o més
Escasses núvols a una alçada de 2000 ft
Núvols disperses a una alçada de 22000 ft

METAR: ETHB 101520Z 20011KT 9999 FEW020 SCT220 04/00 Q1021 BLU+BLU+

Hora: 16:39 (15:39 UTC)

Pronòstic

L'informe es va fer fa 1 hora i 6 minuts, a les 14:33 UTC
Pronòstic vàlid del 10 a les 15 UTC al 10 a les 24 UTC
Vent 15 kt del Sud amb ràfegues de 25 kt
Visibilitat 10 km o més
Núvols disperses a una alçada de 12000 ft

TAF: ETHB 101433Z 1015/1024 19015G25KT 9999 NSW SCT120

Observacions i pronòstics meteorològics de més de 4000 aeroports (METAR i TAF).

Les estacions disponibles són els punts grocs i vermells al mapa.

Posi el ratolí al punt desitjat per veure el nom de l'estació.

Feu clic per veure les observacions i els pronòstics meteorològics.

Per canviar el mapa: feu clic els botons verds amb una creu de color negre per apropar; al botó verd amb un guió per allunyar la imatge; o en les fletxes verdes per a mapes adjacents.


METAR-TAF: